Terminal Aerodrome Forecast
Issued by NWS Charleston, WV

Current Version | Previous Version | Text Only | Print | Product List | Glossary Off
Versions: 1 2 3 4 5 6 7 8 9 10 11 12 13 14 15 16 17 18 19 20 21 22 23

000
FTUS41 KRLX 280543
TAFEKN
TAF
KEKN 280543Z 2806/2906 26008KT P6SM BKN015
      TEMPO 2806/2810 BKN025
     FM281500 26009KT P6SM BKN012
     FM281700 30009KT P6SM BKN025
     FM282000 29010G25KT P6SM BKN035
     FM282300 28007KT P6SM SCT040
     FM290400 00000KT 5SM BR SCT040=

USA.gov is the U.S. government's official web portal to all federal, state and local government web resources and services.